sensor_id;sensor_type;location;lat;lon;timestamp;P1;durP1;ratioP1;P2;durP2;ratioP2
27199;SDS011;14714;48.106;11.546;2023-09-07T00:02:01;5.65;;;4.93;;
27199;SDS011;14714;48.106;11.546;2023-09-07T00:04:30;5.63;;;4.78;;
27199;SDS011;14714;48.106;11.546;2023-09-07T00:06:59;6.72;;;5.13;;
27199;SDS011;14714;48.106;11.546;2023-09-07T00:09:30;6.40;;;5.18;;
27199;SDS011;14714;48.106;11.546;2023-09-07T00:11:59;6.30;;;5.55;;
27199;SDS011;14714;48.106;11.546;2023-09-07T00:14:28;5.53;;;4.78;;
27199;SDS011;14714;48.106;11.546;2023-09-07T00:16:59;6.63;;;5.30;;
27199;SDS011;14714;48.106;11.546;2023-09-07T00:19:34;8.38;;;5.85;;
27199;SDS011;14714;48.106;11.546;2023-09-07T00:22:04;8.85;;;6.60;;
27199;SDS011;14714;48.106;11.546;2023-09-07T00:24:36;8.40;;;5.93;;
27199;SDS011;14714;48.106;11.546;2023-09-07T00:27:09;7.55;;;5.45;;
27199;SDS011;14714;48.106;11.546;2023-09-07T00:29:39;5.88;;;5.28;;
27199;SDS011;14714;48.106;11.546;2023-09-07T00:32:08;6.93;;;5.80;;
27199;SDS011;14714;48.106;11.546;2023-09-07T00:34:40;7.93;;;5.53;;
27199;SDS011;14714;48.106;11.546;2023-09-07T00:37:09;6.25;;;5.32;;
27199;SDS011;14714;48.106;11.546;2023-09-07T00:39:43;7.18;;;5.40;;
27199;SDS011;14714;48.106;11.546;2023-09-07T00:42:14;6.78;;;5.30;;
27199;SDS011;14714;48.106;11.546;2023-09-07T00:44:43;6.68;;;5.43;;
27199;SDS011;14714;48.106;11.546;2023-09-07T00:47:13;7.00;;;6.00;;
27199;SDS011;14714;48.106;11.546;2023-09-07T00:49:43;6.38;;;5.32;;
27199;SDS011;14714;48.106;11.546;2023-09-07T00:52:12;6.40;;;5.43;;
27199;SDS011;14714;48.106;11.546;2023-09-07T00:54:42;5.82;;;4.75;;
27199;SDS011;14714;48.106;11.546;2023-09-07T00:57:12;7.93;;;5.45;;
27199;SDS011;14714;48.106;11.546;2023-09-07T00:59:41;6.20;;;4.72;;
27199;SDS011;14714;48.106;11.546;2023-09-07T01:02:09;7.35;;;5.65;;
27199;SDS011;14714;48.106;11.546;2023-09-07T01:04:38;6.88;;;5.10;;
27199;SDS011;14714;48.106;11.546;2023-09-07T01:07:22;6.05;;;5.45;;
27199;SDS011;14714;48.106;11.546;2023-09-07T01:09:57;6.35;;;5.50;;
27199;SDS011;14714;48.106;11.546;2023-09-07T01:12:30;8.20;;;5.70;;
27199;SDS011;14714;48.106;11.546;2023-09-07T01:14:59;5.68;;;4.88;;
27199;SDS011;14714;48.106;11.546;2023-09-07T01:17:29;6.40;;;5.25;;
27199;SDS011;14714;48.106;11.546;2023-09-07T01:19:59;8.95;;;5.28;;
27199;SDS011;14714;48.106;11.546;2023-09-07T01:22:37;7.18;;;5.93;;
27199;SDS011;14714;48.106;11.546;2023-09-07T01:27:35;6.68;;;5.30;;
27199;SDS011;14714;48.106;11.546;2023-09-07T01:30:06;6.32;;;5.05;;
27199;SDS011;14714;48.106;11.546;2023-09-07T01:32:36;6.93;;;5.95;;
27199;SDS011;14714;48.106;11.546;2023-09-07T01:35:08;6.55;;;5.10;;
27199;SDS011;14714;48.106;11.546;2023-09-07T01:37:40;6.38;;;4.95;;
27199;SDS011;14714;48.106;11.546;2023-09-07T01:40:09;6.00;;;5.00;;
27199;SDS011;14714;48.106;11.546;2023-09-07T01:42:38;7.28;;;5.43;;
27199;SDS011;14714;48.106;11.546;2023-09-07T01:45:08;6.85;;;5.55;;
27199;SDS011;14714;48.106;11.546;2023-09-07T01:47:38;6.18;;;5.22;;
27199;SDS011;14714;48.106;11.546;2023-09-07T01:50:07;5.57;;;4.97;;
27199;SDS011;14714;48.106;11.546;2023-09-07T01:52:36;5.85;;;5.00;;
27199;SDS011;14714;48.106;11.546;2023-09-07T01:55:08;5.15;;;4.65;;
27199;SDS011;14714;48.106;11.546;2023-09-07T01:57:38;5.63;;;5.00;;
27199;SDS011;14714;48.106;11.546;2023-09-07T02:00:08;7.15;;;5.30;;
27199;SDS011;14714;48.106;11.546;2023-09-07T02:02:37;8.63;;;5.43;;
27199;SDS011;14714;48.106;11.546;2023-09-07T02:05:08;6.65;;;5.60;;
27199;SDS011;14714;48.106;11.546;2023-09-07T02:07:41;6.20;;;4.88;;
27199;SDS011;14714;48.106;11.546;2023-09-07T02:10:10;7.97;;;4.93;;
27199;SDS011;14714;48.106;11.546;2023-09-07T02:12:42;5.75;;;5.00;;
27199;SDS011;14714;48.106;11.546;2023-09-07T02:15:13;6.47;;;4.88;;
27199;SDS011;14714;48.106;11.546;2023-09-07T02:17:42;6.28;;;4.60;;
27199;SDS011;14714;48.106;11.546;2023-09-07T02:20:11;7.10;;;5.20;;
27199;SDS011;14714;48.106;11.546;2023-09-07T02:22:41;5.57;;;4.78;;
27199;SDS011;14714;48.106;11.546;2023-09-07T02:27:43;5.32;;;4.80;;
27199;SDS011;14714;48.106;11.546;2023-09-07T02:30:11;5.55;;;4.50;;
27199;SDS011;14714;48.106;11.546;2023-09-07T02:32:42;8.18;;;4.55;;
27199;SDS011;14714;48.106;11.546;2023-09-07T02:35:22;6.23;;;4.77;;
27199;SDS011;14714;48.106;11.546;2023-09-07T02:37:54;5.72;;;4.72;;
27199;SDS011;14714;48.106;11.546;2023-09-07T02:42:53;5.90;;;5.15;;
27199;SDS011;14714;48.106;11.546;2023-09-07T02:45:23;6.43;;;5.18;;
27199;SDS011;14714;48.106;11.546;2023-09-07T02:47:52;5.53;;;4.65;;
27199;SDS011;14714;48.106;11.546;2023-09-07T02:50:23;6.53;;;5.00;;
27199;SDS011;14714;48.106;11.546;2023-09-07T02:52:53;6.85;;;4.85;;
27199;SDS011;14714;48.106;11.546;2023-09-07T02:55:22;6.25;;;5.03;;
27199;SDS011;14714;48.106;11.546;2023-09-07T02:57:52;6.00;;;5.00;;
27199;SDS011;14714;48.106;11.546;2023-09-07T03:00:24;5.22;;;4.72;;
27199;SDS011;14714;48.106;11.546;2023-09-07T03:02:53;5.35;;;4.03;;
27199;SDS011;14714;48.106;11.546;2023-09-07T03:05:26;7.68;;;5.03;;
27199;SDS011;14714;48.106;11.546;2023-09-07T03:07:59;6.78;;;5.32;;
27199;SDS011;14714;48.106;11.546;2023-09-07T03:10:35;5.80;;;4.68;;
27199;SDS011;14714;48.106;11.546;2023-09-07T03:13:05;6.35;;;5.10;;
27199;SDS011;14714;48.106;11.546;2023-09-07T03:15:34;6.03;;;4.85;;
27199;SDS011;14714;48.106;11.546;2023-09-07T03:18:06;5.03;;;4.53;;
27199;SDS011;14714;48.106;11.546;2023-09-07T03:20:34;6.13;;;4.90;;
27199;SDS011;14714;48.106;11.546;2023-09-07T03:23:04;7.45;;;5.18;;
27199;SDS011;14714;48.106;11.546;2023-09-07T03:25:34;6.28;;;5.28;;
27199;SDS011;14714;48.106;11.546;2023-09-07T03:28:04;6.03;;;5.13;;
27199;SDS011;14714;48.106;11.546;2023-09-07T03:30:34;5.93;;;4.93;;
27199;SDS011;14714;48.106;11.546;2023-09-07T03:33:03;6.70;;;5.45;;
27199;SDS011;14714;48.106;11.546;2023-09-07T03:35:32;6.05;;;5.38;;
27199;SDS011;14714;48.106;11.546;2023-09-07T03:38:05;5.75;;;4.82;;
27199;SDS011;14714;48.106;11.546;2023-09-07T03:40:36;5.97;;;4.78;;
27199;SDS011;14714;48.106;11.546;2023-09-07T03:43:06;4.97;;;4.47;;
27199;SDS011;14714;48.106;11.546;2023-09-07T03:45:39;6.13;;;4.75;;
27199;SDS011;14714;48.106;11.546;2023-09-07T03:48:08;6.10;;;4.68;;
27199;SDS011;14714;48.106;11.546;2023-09-07T03:50:37;5.80;;;4.60;;
27199;SDS011;14714;48.106;11.546;2023-09-07T03:53:09;6.65;;;4.80;;
27199;SDS011;14714;48.106;11.546;2023-09-07T03:55:42;5.45;;;4.72;;
27199;SDS011;14714;48.106;11.546;2023-09-07T03:58:11;6.15;;;4.97;;
27199;SDS011;14714;48.106;11.546;2023-09-07T04:00:43;6.00;;;5.03;;
27199;SDS011;14714;48.106;11.546;2023-09-07T04:03:13;7.53;;;5.45;;
27199;SDS011;14714;48.106;11.546;2023-09-07T04:05:42;8.65;;;5.78;;
27199;SDS011;14714;48.106;11.546;2023-09-07T04:08:11;6.28;;;5.07;;
27199;SDS011;14714;48.106;11.546;2023-09-07T04:10:40;7.30;;;5.32;;
27199;SDS011;14714;48.106;11.546;2023-09-07T04:13:25;5.75;;;4.80;;
27199;SDS011;14714;48.106;11.546;2023-09-07T04:15:55;5.32;;;4.70;;
27199;SDS011;14714;48.106;11.546;2023-09-07T04:18:25;6.28;;;5.05;;
27199;SDS011;14714;48.106;11.546;2023-09-07T04:21:03;7.25;;;5.00;;
27199;SDS011;14714;48.106;11.546;2023-09-07T04:23:32;6.55;;;4.70;;
27199;SDS011;14714;48.106;11.546;2023-09-07T04:26:08;5.43;;;4.80;;
27199;SDS011;14714;48.106;11.546;2023-09-07T04:28:41;4.85;;;4.35;;
27199;SDS011;14714;48.106;11.546;2023-09-07T04:31:10;5.68;;;4.75;;
27199;SDS011;14714;48.106;11.546;2023-09-07T04:33:40;8.07;;;5.28;;
27199;SDS011;14714;48.106;11.546;2023-09-07T04:36:10;5.68;;;5.10;;
27199;SDS011;14714;48.106;11.546;2023-09-07T04:38:42;5.30;;;4.80;;
27199;SDS011;14714;48.106;11.546;2023-09-07T04:41:12;5.70;;;5.10;;
27199;SDS011;14714;48.106;11.546;2023-09-07T04:43:42;7.10;;;4.70;;
27199;SDS011;14714;48.106;11.546;2023-09-07T04:46:12;5.97;;;4.63;;
27199;SDS011;14714;48.106;11.546;2023-09-07T04:48:48;5.47;;;4.82;;
27199;SDS011;14714;48.106;11.546;2023-09-07T04:51:18;8.00;;;5.07;;
27199;SDS011;14714;48.106;11.546;2023-09-07T04:53:50;7.28;;;5.20;;
27199;SDS011;14714;48.106;11.546;2023-09-07T04:56:21;6.45;;;5.40;;
27199;SDS011;14714;48.106;11.546;2023-09-07T04:58:57;7.05;;;5.57;;
27199;SDS011;14714;48.106;11.546;2023-09-07T05:01:26;8.45;;;6.18;;
27199;SDS011;14714;48.106;11.546;2023-09-07T05:03:59;6.88;;;5.07;;
27199;SDS011;14714;48.106;11.546;2023-09-07T05:06:32;6.57;;;5.10;;
27199;SDS011;14714;48.106;11.546;2023-09-07T05:09:05;6.03;;;4.95;;
27199;SDS011;14714;48.106;11.546;2023-09-07T05:11:34;5.20;;;4.70;;
27199;SDS011;14714;48.106;11.546;2023-09-07T05:14:06;6.00;;;4.80;;
27199;SDS011;14714;48.106;11.546;2023-09-07T05:16:34;7.05;;;5.40;;
27199;SDS011;14714;48.106;11.546;2023-09-07T05:19:06;6.60;;;5.28;;
27199;SDS011;14714;48.106;11.546;2023-09-07T05:21:36;6.30;;;5.45;;
27199;SDS011;14714;48.106;11.546;2023-09-07T05:24:06;8.23;;;5.65;;
27199;SDS011;14714;48.106;11.546;2023-09-07T05:26:38;6.22;;;5.45;;
27199;SDS011;14714;48.106;11.546;2023-09-07T05:29:11;6.88;;;5.38;;
27199;SDS011;14714;48.106;11.546;2023-09-07T05:31:42;7.75;;;5.38;;
27199;SDS011;14714;48.106;11.546;2023-09-07T05:34:10;5.80;;;5.20;;
27199;SDS011;14714;48.106;11.546;2023-09-07T05:36:41;6.28;;;5.53;;
27199;SDS011;14714;48.106;11.546;2023-09-07T05:39:12;5.90;;;5.25;;
27199;SDS011;14714;48.106;11.546;2023-09-07T05:41:46;7.13;;;5.75;;
27199;SDS011;14714;48.106;11.546;2023-09-07T05:44:19;13.70;;;9.70;;
27199;SDS011;14714;48.106;11.546;2023-09-07T05:46:57;18.95;;;14.35;;
27199;SDS011;14714;48.106;11.546;2023-09-07T05:49:27;18.55;;;15.27;;
27199;SDS011;14714;48.106;11.546;2023-09-07T05:51:58;14.88;;;11.32;;
27199;SDS011;14714;48.106;11.546;2023-09-07T05:54:29;7.40;;;6.05;;
27199;SDS011;14714;48.106;11.546;2023-09-07T05:59:29;6.28;;;4.80;;
27199;SDS011;14714;48.106;11.546;2023-09-07T06:02:09;7.30;;;4.65;;
27199;SDS011;14714;48.106;11.546;2023-09-07T06:04:41;7.45;;;4.75;;
27199;SDS011;14714;48.106;11.546;2023-09-07T06:07:12;8.55;;;4.32;;
27199;SDS011;14714;48.106;11.546;2023-09-07T06:09:42;8.57;;;4.70;;
27199;SDS011;14714;48.106;11.546;2023-09-07T06:12:26;8.18;;;5.30;;
27199;SDS011;14714;48.106;11.546;2023-09-07T06:14:57;7.18;;;5.63;;
27199;SDS011;14714;48.106;11.546;2023-09-07T06:17:27;8.55;;;5.68;;
27199;SDS011;14714;48.106;11.546;2023-09-07T06:20:09;7.40;;;5.70;;
27199;SDS011;14714;48.106;11.546;2023-09-07T06:22:38;12.18;;;6.45;;
27199;SDS011;14714;48.106;11.546;2023-09-07T06:25:08;6.50;;;5.80;;
27199;SDS011;14714;48.106;11.546;2023-09-07T06:27:37;9.50;;;6.32;;
27199;SDS011;14714;48.106;11.546;2023-09-07T06:30:06;7.78;;;6.20;;
27199;SDS011;14714;48.106;11.546;2023-09-07T06:32:37;11.88;;;5.80;;
27199;SDS011;14714;48.106;11.546;2023-09-07T06:35:07;8.48;;;6.28;;
27199;SDS011;14714;48.106;11.546;2023-09-07T06:37:40;8.02;;;5.68;;
27199;SDS011;14714;48.106;11.546;2023-09-07T06:42:44;11.45;;;6.22;;
27199;SDS011;14714;48.106;11.546;2023-09-07T06:45:18;8.77;;;6.28;;
27199;SDS011;14714;48.106;11.546;2023-09-07T06:47:48;7.97;;;5.93;;
27199;SDS011;14714;48.106;11.546;2023-09-07T06:50:22;8.95;;;5.60;;
27199;SDS011;14714;48.106;11.546;2023-09-07T06:52:50;11.32;;;5.70;;
27199;SDS011;14714;48.106;11.546;2023-09-07T06:55:24;7.50;;;5.50;;
27199;SDS011;14714;48.106;11.546;2023-09-07T06:57:56;7.28;;;5.30;;
27199;SDS011;14714;48.106;11.546;2023-09-07T07:00:30;14.93;;;5.93;;
27199;SDS011;14714;48.106;11.546;2023-09-07T07:03:00;8.88;;;5.50;;
27199;SDS011;14714;48.106;11.546;2023-09-07T07:05:32;7.63;;;5.32;;
27199;SDS011;14714;48.106;11.546;2023-09-07T07:08:03;6.85;;;5.57;;
27199;SDS011;14714;48.106;11.546;2023-09-07T07:10:33;8.50;;;5.53;;
27199;SDS011;14714;48.106;11.546;2023-09-07T07:13:03;6.55;;;5.82;;
27199;SDS011;14714;48.106;11.546;2023-09-07T07:15:32;6.50;;;4.78;;
27199;SDS011;14714;48.106;11.546;2023-09-07T07:18:08;7.53;;;5.65;;
27199;SDS011;14714;48.106;11.546;2023-09-07T07:20:38;8.98;;;5.80;;
27199;SDS011;14714;48.106;11.546;2023-09-07T07:23:07;6.65;;;5.75;;
27199;SDS011;14714;48.106;11.546;2023-09-07T07:25:37;7.55;;;5.75;;
27199;SDS011;14714;48.106;11.546;2023-09-07T07:28:07;7.80;;;5.90;;
27199;SDS011;14714;48.106;11.546;2023-09-07T07:30:40;7.05;;;5.60;;
27199;SDS011;14714;48.106;11.546;2023-09-07T07:33:11;7.70;;;5.97;;
27199;SDS011;14714;48.106;11.546;2023-09-07T07:35:43;8.85;;;5.65;;
27199;SDS011;14714;48.106;11.546;2023-09-07T07:38:13;7.93;;;5.60;;
27199;SDS011;14714;48.106;11.546;2023-09-07T07:43:14;10.68;;;5.63;;
27199;SDS011;14714;48.106;11.546;2023-09-07T07:45:45;6.88;;;5.00;;
27199;SDS011;14714;48.106;11.546;2023-09-07T07:48:15;8.88;;;5.10;;
27199;SDS011;14714;48.106;11.546;2023-09-07T07:51:04;7.63;;;5.38;;
27199;SDS011;14714;48.106;11.546;2023-09-07T07:53:48;11.07;;;5.18;;
27199;SDS011;14714;48.106;11.546;2023-09-07T07:56:22;6.50;;;4.90;;
27199;SDS011;14714;48.106;11.546;2023-09-07T07:59:17;6.03;;;5.28;;
27199;SDS011;14714;48.106;11.546;2023-09-07T08:02:01;9.10;;;5.57;;
27199;SDS011;14714;48.106;11.546;2023-09-07T08:04:57;11.35;;;5.93;;
27199;SDS011;14714;48.106;11.546;2023-09-07T08:07:45;7.97;;;5.18;;
27199;SDS011;14714;48.106;11.546;2023-09-07T08:10:38;8.02;;;5.30;;
27199;SDS011;14714;48.106;11.546;2023-09-07T08:13:50;6.47;;;4.93;;
27199;SDS011;14714;48.106;11.546;2023-09-07T08:16:19;5.70;;;5.18;;
27199;SDS011;14714;48.106;11.546;2023-09-07T08:19:17;6.65;;;5.30;;
27199;SDS011;14714;48.106;11.546;2023-09-07T08:22:01;6.32;;;5.00;;
27199;SDS011;14714;48.106;11.546;2023-09-07T08:24:48;7.25;;;5.00;;
27199;SDS011;14714;48.106;11.546;2023-09-07T08:27:37;6.32;;;4.78;;
27199;SDS011;14714;48.106;11.546;2023-09-07T08:30:29;8.25;;;4.82;;
27199;SDS011;14714;48.106;11.546;2023-09-07T08:33:48;20.40;;;5.28;;
27199;SDS011;14714;48.106;11.546;2023-09-07T08:37:31;6.80;;;4.68;;
27199;SDS011;14714;48.106;11.546;2023-09-07T08:41:01;6.15;;;4.70;;
27199;SDS011;14714;48.106;11.546;2023-09-07T08:44:19;8.95;;;4.72;;
27199;SDS011;14714;48.106;11.546;2023-09-07T08:47:26;6.95;;;4.60;;
27199;SDS011;14714;48.106;11.546;2023-09-07T08:50:54;7.32;;;4.95;;
27199;SDS011;14714;48.106;11.546;2023-09-07T08:54:08;8.98;;;4.30;;
27199;SDS011;14714;48.106;11.546;2023-09-07T08:57:02;8.25;;;4.72;;
27199;SDS011;14714;48.106;11.546;2023-09-07T09:00:19;7.93;;;4.70;;
27199;SDS011;14714;48.106;11.546;2023-09-07T09:03:23;6.85;;;4.70;;
27199;SDS011;14714;48.106;11.546;2023-09-07T09:06:58;6.22;;;4.43;;
27199;SDS011;14714;48.106;11.546;2023-09-07T09:10:09;7.10;;;4.82;;
27199;SDS011;14714;48.106;11.546;2023-09-07T09:13:10;6.78;;;4.80;;
27199;SDS011;14714;48.106;11.546;2023-09-07T09:16:08;6.97;;;4.53;;
27199;SDS011;14714;48.106;11.546;2023-09-07T09:19:01;6.35;;;4.20;;
27199;SDS011;14714;48.106;11.546;2023-09-07T09:22:28;6.63;;;4.32;;
27199;SDS011;14714;48.106;11.546;2023-09-07T09:25:36;6.40;;;4.82;;
27199;SDS011;14714;48.106;11.546;2023-09-07T09:28:34;7.03;;;4.60;;
27199;SDS011;14714;48.106;11.546;2023-09-07T09:31:45;5.68;;;4.95;;
27199;SDS011;14714;48.106;11.546;2023-09-07T09:35:12;23.05;;;5.47;;
27199;SDS011;14714;48.106;11.546;2023-09-07T09:41:02;8.18;;;5.18;;
27199;SDS011;14714;48.106;11.546;2023-09-07T09:43:34;5.93;;;4.80;;
27199;SDS011;14714;48.106;11.546;2023-09-07T09:46:03;7.03;;;4.30;;
27199;SDS011;14714;48.106;11.546;2023-09-07T09:48:34;8.50;;;5.38;;
27199;SDS011;14714;48.106;11.546;2023-09-07T09:51:05;8.55;;;4.72;;
27199;SDS011;14714;48.106;11.546;2023-09-07T09:53:36;7.93;;;4.97;;
27199;SDS011;14714;48.106;11.546;2023-09-07T09:56:07;9.77;;;5.95;;
27199;SDS011;14714;48.106;11.546;2023-09-07T09:58:41;8.85;;;5.82;;
27199;SDS011;14714;48.106;11.546;2023-09-07T10:01:10;7.07;;;5.68;;
27199;SDS011;14714;48.106;11.546;2023-09-07T10:03:45;11.85;;;5.63;;
27199;SDS011;14714;48.106;11.546;2023-09-07T10:06:22;41.80;;;7.40;;
27199;SDS011;14714;48.106;11.546;2023-09-07T10:08:59;9.75;;;4.90;;
27199;SDS011;14714;48.106;11.546;2023-09-07T10:11:34;12.85;;;5.13;;
27199;SDS011;14714;48.106;11.546;2023-09-07T10:14:07;8.40;;;5.13;;
27199;SDS011;14714;48.106;11.546;2023-09-07T10:16:44;8.77;;;5.22;;
27199;SDS011;14714;48.106;11.546;2023-09-07T10:19:14;37.90;;;6.30;;
27199;SDS011;14714;48.106;11.546;2023-09-07T10:21:46;19.17;;;5.80;;
27199;SDS011;14714;48.106;11.546;2023-09-07T10:24:31;15.63;;;6.03;;
27199;SDS011;14714;48.106;11.546;2023-09-07T10:27:07;14.10;;;6.20;;
27199;SDS011;14714;48.106;11.546;2023-09-07T10:32:14;39.58;;;7.28;;
27199;SDS011;14714;48.106;11.546;2023-09-07T10:34:46;20.45;;;5.80;;
27199;SDS011;14714;48.106;11.546;2023-09-07T10:37:17;8.23;;;5.57;;
27199;SDS011;14714;48.106;11.546;2023-09-07T10:39:58;8.77;;;5.70;;
27199;SDS011;14714;48.106;11.546;2023-09-07T10:42:26;7.68;;;5.80;;
27199;SDS011;14714;48.106;11.546;2023-09-07T10:44:55;9.75;;;6.63;;
27199;SDS011;14714;48.106;11.546;2023-09-07T10:47:36;9.80;;;6.57;;
27199;SDS011;14714;48.106;11.546;2023-09-07T10:50:10;185.95;;;12.15;;
27199;SDS011;14714;48.106;11.546;2023-09-07T10:52:42;16.88;;;6.28;;
27199;SDS011;14714;48.106;11.546;2023-09-07T10:55:11;13.38;;;5.50;;
27199;SDS011;14714;48.106;11.546;2023-09-07T10:57:47;8.98;;;5.85;;
27199;SDS011;14714;48.106;11.546;2023-09-07T11:00:16;8.10;;;5.18;;
27199;SDS011;14714;48.106;11.546;2023-09-07T11:02:46;15.98;;;6.03;;
27199;SDS011;14714;48.106;11.546;2023-09-07T11:05:15;12.65;;;6.07;;
27199;SDS011;14714;48.106;11.546;2023-09-07T11:07:45;7.68;;;5.28;;
27199;SDS011;14714;48.106;11.546;2023-09-07T11:10:14;10.05;;;5.80;;
27199;SDS011;14714;48.106;11.546;2023-09-07T11:12:43;6.82;;;5.53;;
27199;SDS011;14714;48.106;11.546;2023-09-07T11:15:11;7.85;;;5.70;;
27199;SDS011;14714;48.106;11.546;2023-09-07T11:17:40;7.60;;;5.97;;
27199;SDS011;14714;48.106;11.546;2023-09-07T11:20:09;8.38;;;5.80;;
27199;SDS011;14714;48.106;11.546;2023-09-07T11:22:38;6.20;;;5.60;;
27199;SDS011;14714;48.106;11.546;2023-09-07T11:25:24;10.65;;;5.70;;
27199;SDS011;14714;48.106;11.546;2023-09-07T11:27:53;7.37;;;5.23;;
27199;SDS011;14714;48.106;11.546;2023-09-07T11:30:24;20.73;;;6.43;;
27199;SDS011;14714;48.106;11.546;2023-09-07T11:33:00;6.22;;;5.63;;
27199;SDS011;14714;48.106;11.546;2023-09-07T11:35:29;7.15;;;5.38;;
27199;SDS011;14714;48.106;11.546;2023-09-07T11:38:01;7.40;;;5.65;;
27199;SDS011;14714;48.106;11.546;2023-09-07T11:40:34;9.15;;;5.85;;
27199;SDS011;14714;48.106;11.546;2023-09-07T11:43:03;9.43;;;5.53;;
27199;SDS011;14714;48.106;11.546;2023-09-07T11:45:31;7.32;;;5.55;;
27199;SDS011;14714;48.106;11.546;2023-09-07T11:48:00;7.75;;;5.47;;
27199;SDS011;14714;48.106;11.546;2023-09-07T11:50:29;8.95;;;6.03;;
27199;SDS011;14714;48.106;11.546;2023-09-07T11:52:58;10.60;;;5.95;;
27199;SDS011;14714;48.106;11.546;2023-09-07T11:55:27;16.50;;;9.38;;
27199;SDS011;14714;48.106;11.546;2023-09-07T11:57:56;61.85;;;18.35;;
27199;SDS011;14714;48.106;11.546;2023-09-07T12:00:24;51.78;;;17.35;;
27199;SDS011;14714;48.106;11.546;2023-09-07T12:02:53;23.85;;;9.88;;
27199;SDS011;14714;48.106;11.546;2023-09-07T12:05:22;18.70;;;8.15;;
27199;SDS011;14714;48.106;11.546;2023-09-07T12:07:51;11.45;;;7.00;;
27199;SDS011;14714;48.106;11.546;2023-09-07T12:10:20;14.02;;;6.90;;
27199;SDS011;14714;48.106;11.546;2023-09-07T12:12:48;8.05;;;5.57;;
27199;SDS011;14714;48.106;11.546;2023-09-07T12:15:18;11.25;;;6.63;;
27199;SDS011;14714;48.106;11.546;2023-09-07T12:17:45;9.40;;;5.97;;
27199;SDS011;14714;48.106;11.546;2023-09-07T12:20:11;9.43;;;5.25;;
27199;SDS011;14714;48.106;11.546;2023-09-07T12:22:40;12.25;;;5.57;;
27199;SDS011;14714;48.106;11.546;2023-09-07T12:25:07;8.57;;;5.93;;
27199;SDS011;14714;48.106;11.546;2023-09-07T12:27:46;9.85;;;5.90;;
27199;SDS011;14714;48.106;11.546;2023-09-07T12:30:19;11.73;;;5.80;;
27199;SDS011;14714;48.106;11.546;2023-09-07T12:32:48;8.88;;;5.55;;
27199;SDS011;14714;48.106;11.546;2023-09-07T12:35:16;7.50;;;5.30;;
27199;SDS011;14714;48.106;11.546;2023-09-07T12:37:43;6.68;;;5.47;;
27199;SDS011;14714;48.106;11.546;2023-09-07T12:40:10;12.65;;;5.85;;
27199;SDS011;14714;48.106;11.546;2023-09-07T12:42:40;9.70;;;6.00;;
27199;SDS011;14714;48.106;11.546;2023-09-07T12:45:08;8.43;;;5.65;;
27199;SDS011;14714;48.106;11.546;2023-09-07T12:47:37;8.20;;;5.30;;
27199;SDS011;14714;48.106;11.546;2023-09-07T12:50:04;9.02;;;5.93;;
27199;SDS011;14714;48.106;11.546;2023-09-07T12:52:33;8.07;;;5.75;;
27199;SDS011;14714;48.106;11.546;2023-09-07T12:55:04;6.80;;;5.78;;
27199;SDS011;14714;48.106;11.546;2023-09-07T12:57:32;9.85;;;5.57;;
27199;SDS011;14714;48.106;11.546;2023-09-07T12:59:59;7.15;;;5.40;;
27199;SDS011;14714;48.106;11.546;2023-09-07T13:02:26;6.97;;;5.53;;
27199;SDS011;14714;48.106;11.546;2023-09-07T13:04:54;6.18;;;5.43;;
27199;SDS011;14714;48.106;11.546;2023-09-07T13:07:21;7.95;;;5.80;;
27199;SDS011;14714;48.106;11.546;2023-09-07T13:09:48;8.10;;;5.78;;
27199;SDS011;14714;48.106;11.546;2023-09-07T13:12:16;6.90;;;5.50;;
27199;SDS011;14714;48.106;11.546;2023-09-07T13:14:42;6.75;;;5.70;;
27199;SDS011;14714;48.106;11.546;2023-09-07T13:17:13;6.53;;;5.82;;
27199;SDS011;14714;48.106;11.546;2023-09-07T13:19:41;16.25;;;6.15;;
27199;SDS011;14714;48.106;11.546;2023-09-07T13:22:08;6.80;;;5.72;;
27199;SDS011;14714;48.106;11.546;2023-09-07T13:24:35;7.88;;;5.45;;
27199;SDS011;14714;48.106;11.546;2023-09-07T13:27:03;9.98;;;5.50;;
27199;SDS011;14714;48.106;11.546;2023-09-07T13:29:30;9.30;;;5.28;;
27199;SDS011;14714;48.106;11.546;2023-09-07T13:31:58;11.80;;;5.50;;
27199;SDS011;14714;48.106;11.546;2023-09-07T13:34:25;7.15;;;5.65;;
27199;SDS011;14714;48.106;11.546;2023-09-07T13:36:52;6.28;;;5.40;;
27199;SDS011;14714;48.106;11.546;2023-09-07T13:39:20;10.65;;;5.68;;
27199;SDS011;14714;48.106;11.546;2023-09-07T13:41:47;7.72;;;5.55;;
27199;SDS011;14714;48.106;11.546;2023-09-07T13:44:15;6.93;;;5.53;;
27199;SDS011;14714;48.106;11.546;2023-09-07T13:46:42;8.40;;;5.65;;
27199;SDS011;14714;48.106;11.546;2023-09-07T13:49:10;9.02;;;4.97;;
27199;SDS011;14714;48.106;11.546;2023-09-07T13:51:39;9.10;;;4.97;;
27199;SDS011;14714;48.106;11.546;2023-09-07T13:54:11;8.80;;;5.22;;
27199;SDS011;14714;48.106;11.546;2023-09-07T13:56:38;7.03;;;5.18;;
27199;SDS011;14714;48.106;11.546;2023-09-07T13:59:09;7.25;;;5.47;;
27199;SDS011;14714;48.106;11.546;2023-09-07T14:01:36;6.35;;;4.80;;
27199;SDS011;14714;48.106;11.546;2023-09-07T14:04:06;11.35;;;5.13;;
27199;SDS011;14714;48.106;11.546;2023-09-07T14:06:33;14.90;;;7.68;;
27199;SDS011;14714;48.106;11.546;2023-09-07T14:09:00;34.13;;;10.30;;
27199;SDS011;14714;48.106;11.546;2023-09-07T14:11:26;21.70;;;8.10;;
27199;SDS011;14714;48.106;11.546;2023-09-07T14:13:53;17.92;;;6.53;;
27199;SDS011;14714;48.106;11.546;2023-09-07T14:16:21;10.57;;;5.13;;
27199;SDS011;14714;48.106;11.546;2023-09-07T14:18:49;9.65;;;5.30;;
27199;SDS011;14714;48.106;11.546;2023-09-07T14:21:17;10.65;;;5.15;;
27199;SDS011;14714;48.106;11.546;2023-09-07T14:23:44;8.07;;;5.00;;
27199;SDS011;14714;48.106;11.546;2023-09-07T14:26:11;7.10;;;4.90;;
27199;SDS011;14714;48.106;11.546;2023-09-07T14:28:38;8.10;;;4.78;;
27199;SDS011;14714;48.106;11.546;2023-09-07T14:31:06;8.98;;;4.78;;
27199;SDS011;14714;48.106;11.546;2023-09-07T14:33:34;8.02;;;5.10;;
27199;SDS011;14714;48.106;11.546;2023-09-07T14:36:05;7.05;;;4.97;;
27199;SDS011;14714;48.106;11.546;2023-09-07T14:38:33;6.95;;;4.90;;
27199;SDS011;14714;48.106;11.546;2023-09-07T14:41:11;7.50;;;5.05;;
27199;SDS011;14714;48.106;11.546;2023-09-07T14:43:45;5.60;;;4.82;;
27199;SDS011;14714;48.106;11.546;2023-09-07T14:46:13;6.53;;;4.60;;
27199;SDS011;14714;48.106;11.546;2023-09-07T14:48:41;9.48;;;4.90;;
27199;SDS011;14714;48.106;11.546;2023-09-07T14:51:09;7.60;;;4.40;;
27199;SDS011;14714;48.106;11.546;2023-09-07T14:53:36;13.80;;;5.40;;
27199;SDS011;14714;48.106;11.546;2023-09-07T14:56:02;9.65;;;4.82;;
27199;SDS011;14714;48.106;11.546;2023-09-07T14:58:29;9.27;;;5.40;;
27199;SDS011;14714;48.106;11.546;2023-09-07T15:00:57;6.47;;;4.35;;
27199;SDS011;14714;48.106;11.546;2023-09-07T15:03:24;6.57;;;4.25;;
27199;SDS011;14714;48.106;11.546;2023-09-07T15:05:52;8.32;;;4.45;;
27199;SDS011;14714;48.106;11.546;2023-09-07T15:08:20;4.93;;;4.38;;
27199;SDS011;14714;48.106;11.546;2023-09-07T15:10:48;9.40;;;4.95;;
27199;SDS011;14714;48.106;11.546;2023-09-07T15:13:15;8.85;;;4.78;;
27199;SDS011;14714;48.106;11.546;2023-09-07T15:15:42;5.40;;;4.55;;
27199;SDS011;14714;48.106;11.546;2023-09-07T15:18:10;7.53;;;4.50;;
27199;SDS011;14714;48.106;11.546;2023-09-07T15:20:37;8.70;;;4.28;;
27199;SDS011;14714;48.106;11.546;2023-09-07T15:23:04;7.05;;;4.65;;
27199;SDS011;14714;48.106;11.546;2023-09-07T15:25:31;9.77;;;4.80;;
27199;SDS011;14714;48.106;11.546;2023-09-07T15:27:58;7.00;;;4.82;;
27199;SDS011;14714;48.106;11.546;2023-09-07T15:30:25;7.03;;;4.55;;
27199;SDS011;14714;48.106;11.546;2023-09-07T15:32:51;8.52;;;4.22;;